Time;durP1;ratioP1;P1;durP2;ratioP2;P2;SDS_P1;SDS_P2;PMS_P1;PMS_P2;Temp;Humidity;BMP_temperature;BMP_pressure;BME280_temperature;BME280_humidity;BME280_pressure;Samples;Min_cycle;Max_cycle;Signal;HPM_P1;HPM_P2
2022/11/04 00:01:58;;;;;;;25.70;22.95;;;11.40;99.90;;;;;;4966939;28;20038;-74
2022/11/04 00:04:26;;;;;;;26.73;24.13;;;11.50;99.90;;;;;;4968147;28;20830;-74
2022/11/04 00:06:53;;;;;;;28.42;23.98;;;11.30;99.90;;;;;;4966513;28;20046;-74
2022/11/04 00:09:21;;;;;;;28.55;25.75;;;11.10;99.90;;;;;;4951158;28;20043;-77
2022/11/04 00:14:33;;;;;;;24.63;22.05;;;11.60;99.90;;;;;;4966545;28;20525;-75
2022/11/04 00:33:46;;;;;;;27.80;24.95;;;11.50;99.90;;;;;;4955976;28;20046;-76
2022/11/04 00:36:11;;;;;;;26.35;23.70;;;11.10;99.90;;;;;;4966100;28;20039;-74
2022/11/04 00:38:37;;;;;;;27.92;25.02;;;11.60;99.90;;;;;;4966891;28;20050;-76
2022/11/04 00:41:24;;;;;;;29.02;26.00;;;10.90;99.90;;;;;;4966322;28;20061;-75
2022/11/04 00:43:48;;;;;;;27.65;24.65;;;11.60;99.90;;;;;;4952169;28;20046;-74
2022/11/04 00:46:14;;;;;;;31.08;27.98;;;11.40;99.90;;;;;;4966601;28;20053;-74
2022/11/04 00:48:39;;;;;;;27.02;22.08;;;11.00;99.90;;;;;;4966076;28;20129;-76
2022/11/04 00:51:05;;;;;;;30.75;27.65;;;11.00;99.90;;;;;;4965558;28;20053;-74
2022/11/04 00:53:31;;;;;;;29.13;26.05;;;10.80;99.90;;;;;;4967214;28;20804;-76
2022/11/04 00:55:58;;;;;;;28.48;25.35;;;11.50;99.90;;;;;;4966889;28;20544;-75
2022/11/04 00:58:24;;;;;;;29.05;25.55;;;11.40;99.90;;;;;;4966250;28;20054;-77
2022/11/04 01:00:50;;;;;;;31.65;27.33;;;11.10;99.90;;;;;;4965751;28;20252;-76
2022/11/04 01:03:15;;;;;;;31.02;26.85;;;10.70;99.90;;;;;;4967295;28;20568;-74
2022/11/04 01:05:41;;;;;;;29.08;25.90;;;10.80;99.90;;;;;;4950572;28;20050;-75
2022/11/04 01:08:07;;;;;;;28.83;25.83;;;10.90;99.90;;;;;;4934878;28;20575;-75
2022/11/04 01:10:35;;;;;;;30.23;25.75;;;11.20;99.90;;;;;;4934361;28;20050;-78
2022/11/04 01:13:00;;;;;;;29.73;26.50;;;11.30;99.90;;;;;;4967216;28;20133;-73
2022/11/04 01:15:26;;;;;;;21.20;19.10;;;10.90;99.90;;;;;;4968233;28;20049;-77
2022/11/04 01:17:52;;;;;;;21.08;18.92;;;11.40;99.90;;;;;;4966769;28;20061;-75
2022/11/04 01:20:17;;;;;;;19.98;17.88;;;11.30;99.90;;;;;;4967395;28;20442;-73
2022/11/04 01:22:43;;;;;;;20.17;18.08;;;10.60;99.90;;;;;;4967538;28;20035;-76
2022/11/04 01:25:09;;;;;;;14.60;13.10;;;11.30;99.90;;;;;;4950514;28;20518;-75
2022/11/04 01:27:35;;;;;;;14.65;13.23;;;10.50;99.90;;;;;;4968549;28;20046;-75
2022/11/04 01:30:00;;;;;;;10.43;9.40;;;10.40;99.90;;;;;;4967893;28;20052;-74
2022/11/04 01:32:27;;;;;;;8.38;7.68;;;10.60;99.90;;;;;;4968305;28;20053;-75
2022/11/04 01:34:52;;;;;;;6.22;4.35;;;10.30;99.90;;;;;;4966023;28;20090;-73
2022/11/04 01:37:18;;;;;;;1.60;1.10;;;10.40;99.90;;;;;;4950635;28;20813;-77
2022/11/04 01:39:44;;;;;;;2.15;1.63;;;10.10;99.90;;;;;;4949833;28;20130;-74
2022/11/04 01:42:12;;;;;;;3.78;0.60;;;10.30;99.90;;;;;;4967787;28;20084;-76
2022/11/04 01:44:41;;;;;;;3.95;0.82;;;10.00;99.90;;;;;;4967796;28;20641;-75
2022/11/04 01:47:39;;;;;;;2.50;0.80;;;10.60;99.90;;;;;;4967958;28;20078;-75
2022/11/04 01:50:27;;;;;;;1.85;0.93;;;10.60;99.90;;;;;;4967475;28;20066;-76
2022/11/04 01:53:07;;;;;;;3.42;1.00;;;10.20;99.90;;;;;;4969073;28;20124;-75
2022/11/04 01:55:37;;;;;;;3.53;1.10;;;9.80;99.90;;;;;;4956362;28;20054;-74
2022/11/04 01:58:09;;;;;;;3.55;1.05;;;9.80;99.90;;;;;;4970011;28;20506;-74
2022/11/04 02:00:38;;;;;;;2.10;0.50;;;10.50;99.90;;;;;;4971395;28;20073;-74
2022/11/04 02:03:27;;;;;;;1.95;0.50;;;10.00;99.90;;;;;;4975468;28;20141;-76
2022/11/04 02:05:54;;;;;;;2.28;0.30;;;10.50;99.90;;;;;;4967365;28;20058;-76
2022/11/04 02:08:20;;;;;;;3.25;0.30;;;10.50;99.90;;;;;;4966556;28;20129;-74
2022/11/04 02:11:04;;;;;;;2.38;0.20;;;10.50;99.90;;;;;;4967003;28;20047;-75
2022/11/04 02:13:32;;;;;;;2.03;0.10;;;10.60;99.90;;;;;;4968291;28;20061;-75
2022/11/04 02:16:13;;;;;;;2.38;0.10;;;10.20;99.90;;;;;;4968299;28;20050;-75
2022/11/04 02:18:54;;;;;;;2.78;0.30;;;10.50;99.90;;;;;;4966788;28;20565;-75
2022/11/04 02:21:55;;;;;;;3.55;0.20;;;10.50;99.90;;;;;;4968791;28;20442;-73
2022/11/04 02:24:45;;;;;;;2.53;0.20;;;10.40;99.90;;;;;;4966318;28;20054;-77
2022/11/04 02:27:29;;;;;;;3.92;0.30;;;10.30;99.90;;;;;;4965718;28;20413;-75
2022/11/04 02:30:13;;;;;;;3.30;0.40;;;10.40;99.90;;;;;;4966771;28;20061;-74
2022/11/04 02:32:46;;;;;;;3.05;0.40;;;10.50;99.90;;;;;;4970030;28;20444;-75
2022/11/04 02:35:28;;;;;;;3.08;0.40;;;10.50;99.90;;;;;;4971457;28;20038;-77
2022/11/04 02:38:17;;;;;;;1.77;0.28;;;9.80;99.90;;;;;;4970985;28;20038;-74
2022/11/04 02:40:47;;;;;;;4.88;0.80;;;10.50;99.90;;;;;;4971763;28;20117;-77
2022/11/04 02:43:50;;;;;;;3.30;0.30;;;10.50;99.90;;;;;;4972148;28;20054;-77
2022/11/04 02:46:45;;;;;;;2.03;0.40;;;10.30;99.90;;;;;;4953367;28;20073;-74
2022/11/04 02:49:19;;;;;;;2.28;0.40;;;10.50;99.90;;;;;;4969168;28;20053;-77
2022/11/04 02:51:47;;;;;;;2.83;0.47;;;10.60;99.90;;;;;;4970623;28;20054;-74
2022/11/04 02:54:34;;;;;;;2.85;0.30;;;10.60;99.90;;;;;;4969141;28;20133;-77
2022/11/04 02:57:03;;;;;;;2.60;0.20;;;10.60;99.90;;;;;;4969139;28;20042;-76
2022/11/04 02:59:37;;;;;;;3.65;0.20;;;10.20;99.90;;;;;;4968914;28;20070;-77
2022/11/04 03:02:05;;;;;;;;;;;10.10;99.90;;;;;;4952838;28;20532;-74
2022/11/04 03:04:37;;;;;;;6.75;0.20;;;9.90;99.90;;;;;;4951878;28;19926;-75
2022/11/04 03:07:06;;;;;;;5.37;0.33;;;10.50;99.90;;;;;;4968165;28;20038;-78
2022/11/04 03:09:34;;;;;;;6.55;0.30;;;9.90;99.90;;;;;;4968560;28;20623;-76
2022/11/04 03:12:11;;;;;;;7.88;0.30;;;10.70;99.90;;;;;;4967356;28;20835;-77
2022/11/04 03:14:47;;;;;;;6.38;0.35;;;10.50;99.90;;;;;;4966320;28;20129;-77
2022/11/04 03:17:25;;;;;;;8.68;0.57;;;9.90;99.90;;;;;;4967873;28;20054;-76
2022/11/04 03:19:57;;;;;;;7.60;0.50;;;10.00;99.90;;;;;;4983455;28;20057;-75
2022/11/04 03:22:28;;;;;;;7.13;0.30;;;10.10;99.90;;;;;;4951588;28;20186;-75
2022/11/04 03:24:54;;;;;;;9.35;0.30;;;9.90;99.90;;;;;;4968598;28;20050;-76
2022/11/04 03:27:32;;;;;;;9.00;0.30;;;10.30;99.90;;;;;;4967259;28;20132;-75
2022/11/04 03:30:03;;;;;;;4.50;0.30;;;10.30;99.90;;;;;;4966329;28;20046;-73
2022/11/04 03:32:45;;;;;;;7.43;0.60;;;9.80;99.90;;;;;;4967002;28;21118;-74
2022/11/04 03:35:15;;;;;;;4.85;0.40;;;10.40;99.90;;;;;;4950348;28;20357;-74
2022/11/04 03:37:42;;;;;;;5.90;0.20;;;10.40;99.90;;;;;;4968421;28;20157;-75
2022/11/04 03:40:09;;;;;;;7.38;0.20;;;10.40;99.90;;;;;;4966762;28;20504;-78
2022/11/04 03:42:42;;;;;;;6.55;0.30;;;9.70;99.90;;;;;;4982751;28;20486;-74
2022/11/04 03:45:09;;;;;;;8.38;0.22;;;9.90;99.90;;;;;;4950827;28;21075;-75
2022/11/04 03:47:35;;;;;;;7.25;0.20;;;10.60;99.90;;;;;;4950409;28;20042;-77
2022/11/04 03:50:07;;;;;;;7.55;0.20;;;10.50;99.90;;;;;;4966907;28;20042;-76
2022/11/04 03:52:33;;;;;;;4.35;0.15;;;9.80;99.90;;;;;;4967195;28;20069;-76
2022/11/04 03:54:58;;;;;;;5.22;0.20;;;9.80;99.90;;;;;;4965563;28;20921;-73
2022/11/04 03:57:35;;;;;;;4.68;0.20;;;9.80;99.90;;;;;;4968229;28;20120;-74
2022/11/04 04:00:08;;;;;;;7.10;0.20;;;10.00;99.90;;;;;;4952928;28;20522;-76
2022/11/04 04:02:39;;;;;;;7.15;0.30;;;10.40;99.90;;;;;;4966717;28;20083;-77
2022/11/04 04:05:19;;;;;;;8.35;0.20;;;10.40;99.90;;;;;;4967298;28;20181;-77
2022/11/04 04:07:51;;;;;;;4.72;0.20;;;9.80;99.90;;;;;;4975333;28;20104;-78
2022/11/04 04:10:42;;;;;;;5.45;0.20;;;9.80;99.90;;;;;;4967064;28;20677;-75
2022/11/04 04:13:33;;;;;;;8.15;0.30;;;9.70;99.90;;;;;;4982404;28;20054;-77
2022/11/04 04:16:14;;;;;;;8.85;0.40;;;10.40;99.90;;;;;;4967944;28;20091;-77
2022/11/04 04:18:47;;;;;;;4.85;0.30;;;10.10;99.90;;;;;;4956475;28;20113;-74
2022/11/04 04:21:19;;;;;;;7.15;0.30;;;10.50;99.90;;;;;;4966516;28;20576;-75
2022/11/04 04:29:21;;;;;;;6.85;0.40;;;10.50;99.90;;;;;;4965432;28;20058;-73
2022/11/04 04:31:51;;;;;;;4.85;0.40;;;9.80;99.90;;;;;;4935558;28;20038;-75
2022/11/04 04:34:28;;;;;;;8.13;0.75;;;10.40;99.90;;;;;;4966087;28;20157;-76
2022/11/04 04:36:59;;;;;;;7.13;0.43;;;10.10;99.90;;;;;;4965956;28;20325;-77
2022/11/04 04:44:58;;;;;;;6.53;0.63;;;10.40;99.90;;;;;;4965949;28;20054;-77
2022/11/04 04:45:20;;;;;;;5.85;0.43;;;10.00;99.90;;;;;;4962215;28;20047;-75
2022/11/04 04:47:46;;;;;;;7.20;0.50;;;9.80;99.90;;;;;;4961998;28;20050;-74
2022/11/04 04:50:17;;;;;;;4.57;0.85;;;10.50;99.90;;;;;;4966017;28;20049;-76
2022/11/04 04:52:46;;;;;;;11.43;1.00;;;9.80;99.90;;;;;;4968040;28;20437;-78
2022/11/04 04:55:13;;;;;;;8.80;0.40;;;10.50;99.90;;;;;;4968416;28;20050;-76
2022/11/04 04:57:39;;;;;;;4.07;0.35;;;10.30;99.90;;;;;;4966687;28;20050;-74
2022/11/04 05:00:08;;;;;;;4.75;0.40;;;10.40;99.90;;;;;;4982857;28;20038;-74
2022/11/04 05:02:34;;;;;;;1.95;0.30;;;10.40;99.90;;;;;;4949495;28;20137;-76
2022/11/04 05:05:00;;;;;;;4.40;0.45;;;10.00;99.90;;;;;;4965151;28;20153;-75
2022/11/04 05:07:26;;;;;;;2.53;0.20;;;9.60;99.90;;;;;;4965368;28;20096;-78
2022/11/04 05:09:52;;;;;;;3.08;0.20;;;10.20;99.90;;;;;;4966485;28;20085;-76
2022/11/04 05:12:17;;;;;;;1.80;0.30;;;10.00;99.90;;;;;;4965914;28;20193;-76
2022/11/04 05:14:43;;;;;;;2.85;0.20;;;10.00;99.90;;;;;;4948876;28;20089;-75
2022/11/04 05:17:09;;;;;;;7.32;0.20;;;9.10;99.90;;;;;;4966585;28;21070;-76
2022/11/04 05:19:35;;;;;;;1.30;0.25;;;9.20;99.90;;;;;;4965480;28;20622;-77
2022/11/04 05:22:00;;;;;;;1.38;0.15;;;9.70;99.90;;;;;;4949143;28;20789;-76
2022/11/04 05:24:26;;;;;;;1.77;0.20;;;9.50;99.90;;;;;;4965770;28;20948;-78
2022/11/04 05:26:52;;;;;;;2.38;0.20;;;9.60;99.90;;;;;;4949914;28;20054;-78
2022/11/04 05:29:18;;;;;;;2.03;0.10;;;9.00;99.90;;;;;;4965305;28;20505;-80
2022/11/04 05:31:44;;;;;;;1.73;0.20;;;9.10;99.90;;;;;;4964306;28;20061;-75
2022/11/04 05:34:11;;;;;;;2.70;0.17;;;9.30;99.90;;;;;;4965774;28;20129;-79
2022/11/04 05:36:37;;;;;;;3.00;0.20;;;9.10;99.90;;;;;;4964980;28;20058;-77
2022/11/04 05:39:03;;;;;;;5.63;0.50;;;9.10;99.90;;;;;;4966401;28;20843;-77
2022/11/04 05:41:29;;;;;;;3.67;0.20;;;9.20;99.90;;;;;;4966456;28;20058;-78
2022/11/04 05:44:00;;;;;;;2.95;0.22;;;10.00;99.90;;;;;;4967012;28;20446;-77
2022/11/04 05:46:26;;;;;;;3.72;0.28;;;10.00;99.90;;;;;;4967987;28;20124;-77
2022/11/04 05:48:52;;;;;;;3.60;0.43;;;10.00;99.90;;;;;;4968302;28;20371;-75
2022/11/04 05:51:21;;;;;;;3.60;0.32;;;9.20;99.90;;;;;;4967036;28;20046;-74
2022/11/04 05:53:47;;;;;;;4.60;0.40;;;9.30;99.90;;;;;;4967764;28;20042;-76
2022/11/04 05:56:12;;;;;;;5.22;0.40;;;10.20;99.90;;;;;;4968489;28;20050;-75
2022/11/04 05:58:38;;;;;;;2.63;0.40;;;10.20;99.90;;;;;;4950429;28;20101;-76
2022/11/04 06:01:25;;;;;;;4.95;0.47;;;10.00;99.90;;;;;;4948828;28;20061;-75
2022/11/04 06:03:51;;;;;;;3.13;0.40;;;9.20;99.90;;;;;;4968323;28;20046;-77
2022/11/04 06:06:17;;;;;;;5.20;0.63;;;9.20;99.90;;;;;;4970626;28;20050;-79
2022/11/04 06:08:43;;;;;;;4.32;0.32;;;10.10;99.90;;;;;;4974466;28;20080;-75
2022/11/04 06:11:09;;;;;;;3.90;0.40;;;10.00;99.90;;;;;;4973388;28;20550;-77
2022/11/04 06:13:34;;;;;;;5.57;0.40;;;9.70;99.90;;;;;;4973004;28;20615;-77
2022/11/04 06:16:00;;;;;;;3.47;0.52;;;9.40;99.90;;;;;;4955513;28;20069;-77
2022/11/04 06:18:26;;;;;;;6.13;0.40;;;9.50;99.90;;;;;;4971939;28;20073;-76
2022/11/04 06:21:14;;;;;;;3.60;0.30;;;10.00;99.90;;;;;;4971562;28;20145;-78
2022/11/04 06:23:41;;;;;;;4.20;0.40;;;9.90;99.90;;;;;;4971519;28;20453;-75
2022/11/04 06:26:07;;;;;;;4.78;0.50;;;9.90;99.90;;;;;;4972366;28;20053;-75
2022/11/04 06:28:33;;;;;;;6.60;0.60;;;9.80;99.90;;;;;;4955230;28;20046;-75
2022/11/04 06:31:00;;;;;;;4.07;0.30;;;9.20;99.90;;;;;;4971620;28;20046;-74
2022/11/04 06:33:27;;;;;;;6.22;0.60;;;9.90;99.90;;;;;;4971059;28;20695;-77
2022/11/04 06:35:56;;;;;;;6.20;0.63;;;10.00;99.90;;;;;;4954513;28;20737;-79
2022/11/04 06:38:22;;;;;;;6.65;0.55;;;9.70;99.90;;;;;;4953208;28;20185;-77
2022/11/04 06:40:48;;;;;;;2.92;0.60;;;10.10;99.90;;;;;;4968246;28;20056;-77
2022/11/04 06:43:13;;;;;;;6.18;0.50;;;10.10;99.90;;;;;;4953585;28;20049;-77
2022/11/04 06:45:39;;;;;;;9.88;0.40;;;9.20;99.90;;;;;;4952777;28;20662;-76
2022/11/04 06:48:05;;;;;;;5.13;0.40;;;9.70;99.90;;;;;;4967789;28;20790;-75
2022/11/04 06:50:31;;;;;;;4.00;0.30;;;9.20;99.90;;;;;;4969315;28;20062;-77
2022/11/04 06:52:56;;;;;;;8.50;0.60;;;9.20;99.90;;;;;;4968285;28;20570;-80
2022/11/04 06:55:22;;;;;;;4.30;0.75;;;9.10;99.90;;;;;;4967763;28;20046;-77
2022/11/04 06:57:48;;;;;;;4.63;0.50;;;9.10;99.90;;;;;;4967934;28;20038;-75
2022/11/04 07:00:14;;;;;;;4.18;0.50;;;9.20;99.90;;;;;;4968332;28;20034;-74
2022/11/04 07:02:40;;;;;;;6.90;1.23;;;9.10;99.90;;;;;;4951656;28;20042;-73
2022/11/04 07:05:06;;;;;;;6.55;1.27;;;9.80;99.90;;;;;;4967970;28;20058;-74
2022/11/04 07:07:32;;;;;;;11.10;1.90;;;9.40;99.90;;;;;;4935365;28;20048;-79
2022/11/04 07:09:57;;;;;;;4.10;1.77;;;9.80;99.90;;;;;;4968951;28;20046;-76
2022/11/04 07:12:23;;;;;;;6.43;1.25;;;9.10;99.90;;;;;;4951402;28;20046;-76
2022/11/04 07:14:50;;;;;;;6.43;1.27;;;8.90;99.90;;;;;;4969078;28;20484;-77
2022/11/04 07:17:16;;;;;;;8.00;0.82;;;9.90;99.90;;;;;;4967151;28;20145;-74
2022/11/04 07:19:42;;;;;;;6.75;0.80;;;8.90;99.90;;;;;;4966682;28;20054;-74
2022/11/04 07:22:07;;;;;;;10.57;1.00;;;8.90;99.90;;;;;;4967262;28;20691;-75
2022/11/04 07:24:34;;;;;;;8.30;0.90;;;9.60;99.90;;;;;;4966637;28;20046;-75
2022/11/04 07:26:59;;;;;;;8.50;0.70;;;9.80;99.90;;;;;;4967964;28;20047;-76
2022/11/04 07:29:25;;;;;;;7.18;0.90;;;9.30;99.90;;;;;;4968884;28;20050;-76
2022/11/04 07:31:51;;;;;;;5.80;0.40;;;9.60;99.90;;;;;;4967953;28;20046;-76
2022/11/04 07:34:17;;;;;;;6.00;0.52;;;9.70;99.90;;;;;;4967724;28;20126;-76
2022/11/04 07:36:42;;;;;;;5.75;0.70;;;9.00;99.90;;;;;;4950765;28;20061;-75
2022/11/04 07:39:08;;;;;;;4.65;0.50;;;9.10;99.90;;;;;;4967670;28;20057;-74
2022/11/04 07:41:34;;;;;;;7.18;0.50;;;9.10;99.90;;;;;;4971366;28;20804;-77
2022/11/04 07:44:04;;;;;;;7.75;0.60;;;9.10;99.90;;;;;;4968299;28;20054;-78
2022/11/04 07:46:30;;;;;;;6.38;0.65;;;9.00;99.90;;;;;;4968648;28;20144;-75
2022/11/04 07:48:57;;;;;;;6.25;0.50;;;9.20;99.90;;;;;;4968572;28;20046;-73
2022/11/04 07:51:24;;;;;;;5.57;0.70;;;9.80;99.90;;;;;;4969541;28;20113;-74
2022/11/04 07:53:50;;;;;;;6.03;0.40;;;9.20;99.90;;;;;;4938936;28;20054;-76
2022/11/04 07:56:17;;;;;;;3.65;0.50;;;9.70;99.90;;;;;;4972875;28;20057;-75
2022/11/04 07:58:43;;;;;;;7.05;0.65;;;9.50;99.90;;;;;;4972239;28;20045;-75
2022/11/04 08:01:16;;;;;;;5.90;0.60;;;9.40;99.90;;;;;;4970793;28;20129;-76
2022/11/04 08:03:41;;;;;;;8.10;0.70;;;10.00;99.90;;;;;;4953924;28;20064;-75
2022/11/04 08:06:09;;;;;;;5.60;0.70;;;9.60;99.90;;;;;;4969174;28;20042;-75
2022/11/04 08:08:35;;;;;;;4.68;0.43;;;9.60;99.90;;;;;;4969536;28;20100;-75
2022/11/04 08:11:07;;;;;;;6.03;0.75;;;9.80;99.90;;;;;;4971572;28;20062;-75
2022/11/04 08:13:35;;;;;;;4.85;0.80;;;9.60;99.90;;;;;;4968414;28;20065;-76
2022/11/04 08:16:02;;;;;;;4.05;0.57;;;10.30;99.90;;;;;;4953532;28;20092;-77
2022/11/04 08:18:29;;;;;;;3.50;0.52;;;9.50;99.90;;;;;;4969181;28;20116;-76
2022/11/04 08:20:55;;;;;;;6.72;0.95;;;10.30;99.90;;;;;;4969934;28;20093;-76
2022/11/04 08:23:21;;;;;;;8.85;0.95;;;10.50;99.90;;;;;;4971090;28;20129;-74
2022/11/04 08:25:46;;;;;;;4.38;0.60;;;9.70;99.90;;;;;;4968515;28;20290;-77
2022/11/04 08:28:16;;;;;;;4.03;0.45;;;10.50;99.90;;;;;;4967861;28;20484;-74
2022/11/04 08:31:27;;;;;;;5.18;0.57;;;10.30;99.90;;;;;;4967125;28;20093;-74
2022/11/04 08:33:54;;;;;;;4.78;0.50;;;10.20;99.90;;;;;;4963543;28;20050;-73
2022/11/04 08:36:31;;;;;;;3.53;0.60;;;10.50;99.90;;;;;;4970344;28;20109;-76
2022/11/04 08:38:57;;;;;;;7.15;0.60;;;11.10;99.90;;;;;;4955031;28;20093;-75
2022/11/04 08:41:27;;;;;;;5.28;0.73;;;10.80;99.90;;;;;;4968484;28;20620;-73
2022/11/04 08:43:55;;;;;;;4.47;0.50;;;11.30;99.90;;;;;;4967723;28;20054;-72
2022/11/04 08:46:21;;;;;;;5.63;0.30;;;11.10;99.90;;;;;;4967525;28;20050;-75
2022/11/04 08:48:48;;;;;;;4.88;0.55;;;12.10;99.90;;;;;;4967135;28;20042;-76
2022/11/04 08:51:23;;;;;;;2.53;0.30;;;12.00;99.90;;;;;;4968950;28;20050;-74
2022/11/04 08:53:49;;;;;;;1.80;0.45;;;12.00;99.90;;;;;;4967414;28;20104;-73
2022/11/04 08:56:21;;;;;;;5.13;0.50;;;11.70;99.90;;;;;;4951945;28;20117;-75
2022/11/04 08:58:47;;;;;;;5.70;0.38;;;11.80;99.90;;;;;;4967774;28;20128;-75
2022/11/04 09:01:13;;;;;;;4.63;0.40;;;11.60;99.90;;;;;;4970669;28;20157;-76
2022/11/04 09:03:40;;;;;;;3.33;0.20;;;11.60;99.90;;;;;;4968088;28;20495;-75
2022/11/04 09:06:11;;;;;;;5.97;0.40;;;11.60;99.90;;;;;;4952107;28;20549;-70
2022/11/04 09:08:38;;;;;;;4.20;0.30;;;11.80;99.90;;;;;;4967043;28;20182;-73
2022/11/04 09:11:08;;;;;;;6.63;0.40;;;13.00;99.90;;;;;;4965753;28;20537;-79
2022/11/04 09:13:34;;;;;;;7.30;0.47;;;13.50;99.90;;;;;;4952410;28;20520;-73
2022/11/04 09:16:00;;;;;;;4.65;0.30;;;13.10;99.90;;;;;;4967684;28;20038;-74
2022/11/04 09:18:26;;;;;;;5.32;0.40;;;13.50;99.90;;;;;;4951524;28;20061;-74
2022/11/04 09:20:51;;;;;;;5.55;0.35;;;14.10;99.90;;;;;;4966982;28;20073;-70
2022/11/04 09:23:17;;;;;;;5.50;0.40;;;13.60;99.90;;;;;;4968347;28;20050;-73
2022/11/04 09:25:43;;;;;;;5.65;0.40;;;13.70;99.90;;;;;;4968856;28;20107;-72
2022/11/04 09:28:09;;;;;;;6.03;0.40;;;13.90;99.90;;;;;;4968596;28;20149;-75
2022/11/04 09:30:36;;;;;;;3.35;0.22;;;14.30;99.90;;;;;;4969310;28;20341;-75
2022/11/04 09:33:02;;;;;;;8.68;0.50;;;14.80;99.90;;;;;;4951625;28;20050;-75
2022/11/04 09:35:28;;;;;;;6.20;0.47;;;14.20;99.90;;;;;;4969169;28;20518;-76
2022/11/04 09:37:54;;;;;;;3.33;0.30;;;14.80;99.90;;;;;;4968518;28;20046;-76
2022/11/04 09:40:23;;;;;;;3.13;0.10;;;14.50;99.90;;;;;;4968580;28;20131;-75
2022/11/04 09:43:08;;;;;;;6.05;0.20;;;14.70;99.90;;;;;;4969072;28;20061;-76
2022/11/04 09:45:37;;;;;;;5.07;0.30;;;14.60;99.90;;;;;;4970616;28;20057;-73
2022/11/04 09:48:07;;;;;;;6.32;0.30;;;15.20;99.90;;;;;;4968316;28;20442;-73
2022/11/04 09:50:45;;;;;;;4.82;0.30;;;15.20;99.90;;;;;;4966240;28;20085;-74
2022/11/04 09:53:25;;;;;;;3.53;0.45;;;15.20;99.90;;;;;;4967856;28;20077;-74
2022/11/04 09:56:04;;;;;;;2.75;0.20;;;14.80;99.90;;;;;;4941666;28;20058;-77
2022/11/04 09:58:35;;;;;;;4.13;0.20;;;14.80;99.90;;;;;;4967300;28;20321;-78
2022/11/04 10:01:05;;;;;;;3.50;0.40;;;15.10;99.90;;;;;;4966234;28;20270;-71
2022/11/04 10:03:50;;;;;;;3.70;0.30;;;15.50;99.90;;;;;;4966010;28;20057;-70
2022/11/04 10:06:47;;;;;;;1.70;0.25;;;15.00;99.90;;;;;;4966327;28;20538;-73
2022/11/04 10:09:50;;;;;;;1.80;0.20;;;15.20;99.90;;;;;;4967061;28;20081;-74
2022/11/04 10:12:21;;;;;;;3.40;0.20;;;15.10;99.90;;;;;;4948980;28;20034;-75
2022/11/04 10:15:25;;;;;;;3.78;0.30;;;15.20;99.90;;;;;;4965584;28;20698;-74
2022/11/04 10:18:06;;;;;;;2.97;0.30;;;14.50;99.90;;;;;;4964262;28;21077;-74
2022/11/04 10:20:50;;;;;;;4.63;0.30;;;13.80;99.90;;;;;;4966380;28;20050;-74
2022/11/04 10:23:33;;;;;;;2.63;0.28;;;13.20;99.90;;;;;;4965335;28;20058;-76
2022/11/04 10:26:38;;;;;;;2.50;0.20;;;12.50;99.90;;;;;;4966373;28;20736;-73
2022/11/04 10:29:10;;;;;;;3.75;0.40;;;12.10;99.90;;;;;;4928266;28;20054;-75
2022/11/04 10:31:38;;;;;;;2.92;0.10;;;12.20;99.90;;;;;;4982490;28;20110;-76
2022/11/04 10:34:14;;;;;;;5.13;0.20;;;12.20;99.90;;;;;;4949860;28;20046;-75
2022/11/04 10:36:40;;;;;;;3.42;0.20;;;12.20;99.90;;;;;;4966034;28;20661;-77
2022/11/04 10:39:25;;;;;;;2.85;0.20;;;11.80;99.90;;;;;;4948302;28;20058;-75
2022/11/04 10:41:51;;;;;;;4.50;0.20;;;11.70;99.90;;;;;;4967538;28;20600;-74
2022/11/04 10:44:26;;;;;;;3.78;0.20;;;11.80;99.90;;;;;;4966366;28;20174;-77
2022/11/04 10:47:07;;;;;;;5.28;0.30;;;12.00;99.90;;;;;;4966151;28;20055;-73
2022/11/04 10:49:51;;;;;;;4.53;0.30;;;11.70;99.90;;;;;;4964524;28;20516;-75
2022/11/04 10:52:17;;;;;;;3.88;0.30;;;12.00;99.90;;;;;;4966741;28;20061;-75
2022/11/04 10:54:46;;;;;;;5.03;0.40;;;11.60;99.90;;;;;;4969448;28;20528;-76
2022/11/04 10:57:19;;;;;;;4.28;0.50;;;11.40;99.90;;;;;;4970525;28;20078;-76
2022/11/04 10:59:55;;;;;;;5.72;0.20;;;11.40;99.90;;;;;;4968497;28;20801;-76
2022/11/04 11:02:48;;;;;;;4.30;0.30;;;11.00;99.90;;;;;;4968006;28;20074;-77
2022/11/04 11:05:16;;;;;;;7.68;0.73;;;11.20;99.90;;;;;;4967480;28;20690;-74
2022/11/04 11:07:48;;;;;;;6.35;0.40;;;11.70;99.90;;;;;;4970084;28;20732;-73
2022/11/04 11:10:19;;;;;;;6.95;0.40;;;11.80;99.90;;;;;;4967681;28;20046;-75
2022/11/04 11:12:51;;;;;;;4.60;0.30;;;11.80;99.90;;;;;;4967649;28;20129;-74
2022/11/04 11:15:24;;;;;;;4.85;0.40;;;11.70;99.90;;;;;;4969347;28;20046;-74
2022/11/04 11:17:56;;;;;;;5.50;0.50;;;11.60;99.90;;;;;;4954058;28;20131;-76
2022/11/04 11:20:25;;;;;;;5.03;0.50;;;11.70;99.90;;;;;;4967450;28;20457;-73
2022/11/04 11:22:53;;;;;;;6.90;0.40;;;11.80;99.90;;;;;;4951974;28;20125;-75
2022/11/04 11:25:31;;;;;;;4.70;0.30;;;11.90;99.90;;;;;;4936344;28;20583;-76
2022/11/04 11:28:10;;;;;;;3.85;0.32;;;11.60;99.90;;;;;;4967718;28;20047;-74
2022/11/04 11:30:45;;;;;;;4.13;0.40;;;11.70;99.90;;;;;;4969473;28;20516;-74
2022/11/04 11:33:27;;;;;;;2.25;0.20;;;12.60;99.90;;;;;;4966519;28;20050;-77
2022/11/04 11:36:13;;;;;;;3.50;0.50;;;13.90;99.90;;;;;;4951347;28;20046;-74
2022/11/04 11:39:00;;;;;;;3.83;0.40;;;14.70;99.90;;;;;;4965980;28;20046;-76
2022/11/04 11:41:33;;;;;;;5.88;0.30;;;16.40;99.90;;;;;;4966848;28;20046;-76
2022/11/04 11:44:42;;;;;;;6.25;0.40;;;15.90;99.90;;;;;;4966762;28;20054;-74
2022/11/04 11:47:27;;;;;;;3.55;0.30;;;15.60;99.90;;;;;;4956391;28;20054;-75
2022/11/04 11:50:17;;;;;;;5.90;0.30;;;16.30;99.90;;;;;;4967036;28;20484;-73
2022/11/04 11:52:48;;;;;;;5.03;0.40;;;16.80;99.90;;;;;;4970350;28;20128;-75
2022/11/04 11:55:33;;;;;;;4.75;0.40;;;16.20;99.90;;;;;;4951547;28;20391;-74
2022/11/04 11:58:21;;;;;;;5.38;0.65;;;16.30;99.90;;;;;;4969024;28;20049;-73
2022/11/04 12:01:10;;;;;;;5.45;0.60;;;16.20;99.90;;;;;;4984473;28;20058;-73
2022/11/04 12:03:43;;;;;;;8.32;0.50;;;15.00;99.90;;;;;;4965822;28;20046;-73
2022/11/04 12:06:18;;;;;;;4.40;0.30;;;14.40;99.90;;;;;;4967343;28;20050;-73
2022/11/04 12:09:14;;;;;;;5.45;0.32;;;13.80;99.90;;;;;;4966388;28;20054;-75
2022/11/04 12:11:49;;;;;;;5.25;0.50;;;12.70;99.90;;;;;;4965031;28;20479;-77
2022/11/04 12:14:35;;;;;;;6.03;0.45;;;12.30;99.90;;;;;;4969857;28;20061;-73
2022/11/04 12:17:37;;;;;;;8.50;0.85;;;12.40;99.90;;;;;;4968264;28;20085;-74
2022/11/04 12:20:15;;;;;;;7.43;0.50;;;11.70;99.90;;;;;;4968119;28;20112;-73
2022/11/04 12:22:50;;;;;;;6.63;0.60;;;11.70;99.90;;;;;;4967651;28;20061;-74
2022/11/04 12:25:42;;;;;;;6.47;0.40;;;11.30;99.90;;;;;;4951180;28;20133;-73
2022/11/04 12:28:15;;;;;;;7.60;0.80;;;11.30;99.90;;;;;;4966085;28;20580;-73
2022/11/04 12:30:56;;;;;;;9.23;0.60;;;11.40;99.90;;;;;;4954690;28;20201;-75
2022/11/04 12:33:24;;;;;;;7.65;0.50;;;10.80;99.90;;;;;;4968398;28;20054;-74
2022/11/04 12:36:13;;;;;;;7.30;0.63;;;10.90;99.90;;;;;;4965532;28;20077;-73
2022/11/04 12:39:08;;;;;;;8.25;0.50;;;12.00;99.90;;;;;;4964902;28;20372;-77
2022/11/04 12:41:55;;;;;;;5.25;0.50;;;12.90;99.90;;;;;;4965327;28;20078;-75
2022/11/04 12:44:34;;;;;;;7.47;0.60;;;13.10;99.90;;;;;;4968637;28;20137;-74
2022/11/04 12:47:35;;;;;;;8.52;0.63;;;13.70;99.90;;;;;;4967244;28;20057;-75
2022/11/04 12:50:38;;;;;;;5.60;0.50;;;13.60;99.90;;;;;;4966250;28;20660;-72
2022/11/04 12:53:32;;;;;;;5.50;0.50;;;13.80;99.90;;;;;;4964741;28;20088;-76
2022/11/04 12:56:19;;;;;;;4.63;0.38;;;13.60;99.90;;;;;;4947492;28;20060;-76
2022/11/04 12:58:54;;;;;;;7.82;0.43;;;14.40;99.90;;;;;;4965106;28;20081;-73
2022/11/04 13:01:32;;;;;;;8.40;0.65;;;14.30;99.90;;;;;;4965077;28;20061;-74
2022/11/04 13:04:05;;;;;;;4.93;0.40;;;15.20;99.90;;;;;;4964320;28;20121;-72
2022/11/04 13:06:39;;;;;;;8.18;0.40;;;15.10;99.90;;;;;;4966243;28;20061;-72
2022/11/04 13:09:24;;;;;;;4.00;0.30;;;15.60;99.90;;;;;;4963746;28;20050;-72
2022/11/04 13:12:10;;;;;;;5.30;0.50;;;15.50;99.90;;;;;;4965127;28;20077;-74
2022/11/04 13:15:11;;;;;;;5.00;0.60;;;15.10;99.90;;;;;;4965939;28;20053;-72
2022/11/04 13:17:39;;;;;;;2.20;0.20;;;14.20;99.90;;;;;;4942333;28;20750;-76
2022/11/04 13:20:13;;;;;;;4.60;0.40;;;13.70;99.90;;;;;;4963995;28;20058;-72
2022/11/04 13:22:44;;;;;;;4.72;0.30;;;12.80;99.90;;;;;;4952815;28;20492;-73
2022/11/04 13:25:29;;;;;;;3.90;0.30;;;12.90;99.90;;;;;;4966479;28;20061;-76
2022/11/04 13:27:56;;;;;;;3.65;0.63;;;13.90;99.90;;;;;;4967476;28;20052;-73
2022/11/04 13:30:48;;;;;;;5.70;0.40;;;14.20;99.90;;;;;;4951904;28;20049;-72
2022/11/04 13:33:37;;;;;;;5.90;0.55;;;13.50;99.90;;;;;;4962015;28;20691;-75
2022/11/04 13:36:40;;;;;;;6.60;0.47;;;13.00;99.90;;;;;;4952038;28;20050;-73
2022/11/04 13:39:15;;;;;;;4.80;0.47;;;12.80;99.90;;;;;;4936593;28;20050;-71
2022/11/04 13:42:05;;;;;;;7.65;0.55;;;12.20;99.90;;;;;;4966532;28;20046;-77
2022/11/04 13:44:37;;;;;;;7.72;0.30;;;12.80;99.90;;;;;;4967442;28;20050;-76
2022/11/04 13:47:12;;;;;;;7.95;0.45;;;14.20;99.90;;;;;;4949969;28;20310;-76